sensor_id;sensor_type;location;lat;lon;timestamp;P1;durP1;ratioP1;P2;durP2;ratioP2
41059;SDS011;26811;53.160;8.202;2023-03-13T00:03:10;73.65;;;15.63;;
41059;SDS011;26811;53.160;8.202;2023-03-13T00:08:11;73.95;;;17.52;;
41059;SDS011;26811;53.160;8.202;2023-03-13T00:13:11;58.13;;;11.43;;
41059;SDS011;26811;53.160;8.202;2023-03-13T00:18:12;66.05;;;14.02;;
41059;SDS011;26811;53.160;8.202;2023-03-13T00:23:13;62.97;;;12.45;;
41059;SDS011;26811;53.160;8.202;2023-03-13T00:28:13;46.78;;;9.93;;
41059;SDS011;26811;53.160;8.202;2023-03-13T00:33:14;62.30;;;9.52;;
41059;SDS011;26811;53.160;8.202;2023-03-13T00:38:14;57.78;;;10.73;;
41059;SDS011;26811;53.160;8.202;2023-03-13T00:43:15;72.70;;;10.98;;
41059;SDS011;26811;53.160;8.202;2023-03-13T00:48:15;62.75;;;9.20;;
41059;SDS011;26811;53.160;8.202;2023-03-13T00:53:16;61.92;;;12.48;;
41059;SDS011;26811;53.160;8.202;2023-03-13T00:58:16;50.70;;;10.35;;
41059;SDS011;26811;53.160;8.202;2023-03-13T01:03:17;50.78;;;9.93;;
41059;SDS011;26811;53.160;8.202;2023-03-13T01:08:18;55.55;;;8.73;;
41059;SDS011;26811;53.160;8.202;2023-03-13T01:13:18;48.58;;;7.90;;
41059;SDS011;26811;53.160;8.202;2023-03-13T01:18:20;56.50;;;8.20;;
41059;SDS011;26811;53.160;8.202;2023-03-13T01:23:21;42.67;;;8.07;;
41059;SDS011;26811;53.160;8.202;2023-03-13T01:28:23;42.38;;;7.85;;
41059;SDS011;26811;53.160;8.202;2023-03-13T01:33:24;42.38;;;7.65;;
41059;SDS011;26811;53.160;8.202;2023-03-13T01:38:25;42.42;;;6.90;;
41059;SDS011;26811;53.160;8.202;2023-03-13T01:43:27;40.10;;;7.75;;
41059;SDS011;26811;53.160;8.202;2023-03-13T02:04:15;36.25;;;6.00;;
41059;SDS011;26811;53.160;8.202;2023-03-13T02:09:20;39.90;;;6.55;;
41059;SDS011;26811;53.160;8.202;2023-03-13T02:14:25;44.25;;;6.95;;
41059;SDS011;26811;53.160;8.202;2023-03-13T02:19:39;55.28;;;7.45;;
41059;SDS011;26811;53.160;8.202;2023-03-13T02:30:24;41.00;;;6.60;;
41059;SDS011;26811;53.160;8.202;2023-03-13T02:35:25;46.97;;;6.65;;
41059;SDS011;26811;53.160;8.202;2023-03-13T02:40:28;46.15;;;7.10;;
41059;SDS011;26811;53.160;8.202;2023-03-13T02:45:31;45.92;;;6.22;;
41059;SDS011;26811;53.160;8.202;2023-03-13T02:50:32;49.95;;;6.55;;
41059;SDS011;26811;53.160;8.202;2023-03-13T03:00:38;37.97;;;6.82;;
41059;SDS011;26811;53.160;8.202;2023-03-13T03:05:39;43.25;;;7.05;;
41059;SDS011;26811;53.160;8.202;2023-03-13T03:10:39;25.23;;;6.10;;
41059;SDS011;26811;53.160;8.202;2023-03-13T03:15:40;31.95;;;6.45;;
41059;SDS011;26811;53.160;8.202;2023-03-13T03:20:40;39.70;;;6.90;;
41059;SDS011;26811;53.160;8.202;2023-03-13T03:25:41;43.47;;;7.85;;
41059;SDS011;26811;53.160;8.202;2023-03-13T03:30:42;43.17;;;7.40;;
41059;SDS011;26811;53.160;8.202;2023-03-13T03:35:43;50.40;;;8.60;;
41059;SDS011;26811;53.160;8.202;2023-03-13T03:40:43;34.92;;;8.45;;
41059;SDS011;26811;53.160;8.202;2023-03-13T03:45:44;38.55;;;9.10;;
41059;SDS011;26811;53.160;8.202;2023-03-13T03:50:44;53.40;;;11.10;;
41059;SDS011;26811;53.160;8.202;2023-03-13T03:55:45;46.65;;;12.10;;
41059;SDS011;26811;53.160;8.202;2023-03-13T04:00:46;36.53;;;12.10;;
41059;SDS011;26811;53.160;8.202;2023-03-13T04:05:47;53.92;;;13.43;;
41059;SDS011;26811;53.160;8.202;2023-03-13T04:10:47;44.08;;;14.02;;
41059;SDS011;26811;53.160;8.202;2023-03-13T04:15:48;46.22;;;14.60;;
41059;SDS011;26811;53.160;8.202;2023-03-13T04:20:49;47.10;;;14.00;;
41059;SDS011;26811;53.160;8.202;2023-03-13T04:25:49;42.20;;;17.20;;
41059;SDS011;26811;53.160;8.202;2023-03-13T04:30:50;48.13;;;15.50;;
41059;SDS011;26811;53.160;8.202;2023-03-13T04:35:56;40.58;;;13.80;;
41059;SDS011;26811;53.160;8.202;2023-03-13T04:40:56;37.00;;;12.90;;
41059;SDS011;26811;53.160;8.202;2023-03-13T04:45:56;35.40;;;12.40;;
41059;SDS011;26811;53.160;8.202;2023-03-13T04:50:57;28.88;;;12.02;;
41059;SDS011;26811;53.160;8.202;2023-03-13T04:55:58;30.73;;;11.27;;
41059;SDS011;26811;53.160;8.202;2023-03-13T05:00:58;31.77;;;11.20;;
41059;SDS011;26811;53.160;8.202;2023-03-13T05:05:59;26.30;;;10.48;;
41059;SDS011;26811;53.160;8.202;2023-03-13T05:10:59;22.50;;;10.85;;
41059;SDS011;26811;53.160;8.202;2023-03-13T05:16:00;26.52;;;11.00;;
41059;SDS011;26811;53.160;8.202;2023-03-13T05:21:01;24.55;;;10.10;;
41059;SDS011;26811;53.160;8.202;2023-03-13T05:26:02;26.80;;;10.60;;
41059;SDS011;26811;53.160;8.202;2023-03-13T05:31:02;24.23;;;10.55;;
41059;SDS011;26811;53.160;8.202;2023-03-13T05:36:03;27.80;;;11.13;;
41059;SDS011;26811;53.160;8.202;2023-03-13T05:41:04;26.38;;;10.55;;
41059;SDS011;26811;53.160;8.202;2023-03-13T05:46:04;24.60;;;10.65;;
41059;SDS011;26811;53.160;8.202;2023-03-13T05:51:05;25.15;;;11.30;;
41059;SDS011;26811;53.160;8.202;2023-03-13T05:56:05;24.05;;;10.02;;
41059;SDS011;26811;53.160;8.202;2023-03-13T06:01:07;24.17;;;10.60;;
41059;SDS011;26811;53.160;8.202;2023-03-13T06:06:08;29.70;;;11.03;;
41059;SDS011;26811;53.160;8.202;2023-03-13T06:11:09;19.75;;;9.70;;
41059;SDS011;26811;53.160;8.202;2023-03-13T06:16:10;19.83;;;10.02;;
41059;SDS011;26811;53.160;8.202;2023-03-13T06:21:10;19.77;;;9.50;;
41059;SDS011;26811;53.160;8.202;2023-03-13T06:26:11;18.75;;;8.70;;
41059;SDS011;26811;53.160;8.202;2023-03-13T06:31:11;17.98;;;8.15;;
41059;SDS011;26811;53.160;8.202;2023-03-13T06:36:12;14.35;;;7.15;;
41059;SDS011;26811;53.160;8.202;2023-03-13T06:41:13;14.27;;;7.07;;
41059;SDS011;26811;53.160;8.202;2023-03-13T06:46:15;19.58;;;7.13;;
41059;SDS011;26811;53.160;8.202;2023-03-13T06:51:18;14.95;;;7.20;;
41059;SDS011;26811;53.160;8.202;2023-03-13T06:56:20;16.77;;;7.13;;
41059;SDS011;26811;53.160;8.202;2023-03-13T07:01:20;12.52;;;6.78;;
41059;SDS011;26811;53.160;8.202;2023-03-13T07:06:21;15.68;;;7.18;;
41059;SDS011;26811;53.160;8.202;2023-03-13T07:16:36;11.35;;;6.40;;
41059;SDS011;26811;53.160;8.202;2023-03-13T07:21:36;18.20;;;7.78;;
41059;SDS011;26811;53.160;8.202;2023-03-13T07:26:37;14.98;;;7.28;;
41059;SDS011;26811;53.160;8.202;2023-03-13T07:31:37;18.95;;;8.15;;
41059;SDS011;26811;53.160;8.202;2023-03-13T07:36:38;17.27;;;7.75;;
41059;SDS011;26811;53.160;8.202;2023-03-13T07:41:40;18.83;;;7.63;;
41059;SDS011;26811;53.160;8.202;2023-03-13T07:46:41;15.07;;;7.53;;
41059;SDS011;26811;53.160;8.202;2023-03-13T07:51:41;19.05;;;9.15;;
41059;SDS011;26811;53.160;8.202;2023-03-13T07:56:42;19.95;;;8.88;;
41059;SDS011;26811;53.160;8.202;2023-03-13T08:01:42;24.15;;;9.75;;
41059;SDS011;26811;53.160;8.202;2023-03-13T08:06:43;24.70;;;9.95;;
41059;SDS011;26811;53.160;8.202;2023-03-13T08:11:43;21.50;;;9.65;;
41059;SDS011;26811;53.160;8.202;2023-03-13T08:16:44;25.88;;;10.15;;
41059;SDS011;26811;53.160;8.202;2023-03-13T08:21:44;28.67;;;10.52;;
41059;SDS011;26811;53.160;8.202;2023-03-13T08:26:45;24.50;;;10.93;;
41059;SDS011;26811;53.160;8.202;2023-03-13T08:31:46;22.48;;;10.40;;
41059;SDS011;26811;53.160;8.202;2023-03-13T08:36:48;28.00;;;11.27;;
41059;SDS011;26811;53.160;8.202;2023-03-13T08:41:49;25.50;;;10.60;;
41059;SDS011;26811;53.160;8.202;2023-03-13T08:46:49;25.48;;;10.63;;
41059;SDS011;26811;53.160;8.202;2023-03-13T08:51:50;24.30;;;10.90;;
41059;SDS011;26811;53.160;8.202;2023-03-13T08:56:50;26.02;;;10.18;;
41059;SDS011;26811;53.160;8.202;2023-03-13T09:01:51;26.20;;;10.02;;
41059;SDS011;26811;53.160;8.202;2023-03-13T09:06:51;31.63;;;10.23;;
41059;SDS011;26811;53.160;8.202;2023-03-13T09:11:52;24.50;;;10.82;;
41059;SDS011;26811;53.160;8.202;2023-03-13T09:16:52;22.75;;;9.68;;
41059;SDS011;26811;53.160;8.202;2023-03-13T09:21:53;24.25;;;10.07;;
41059;SDS011;26811;53.160;8.202;2023-03-13T09:26:53;24.42;;;10.25;;
41059;SDS011;26811;53.160;8.202;2023-03-13T09:31:54;19.52;;;9.20;;
41059;SDS011;26811;53.160;8.202;2023-03-13T09:36:54;17.83;;;8.15;;
41059;SDS011;26811;53.160;8.202;2023-03-13T09:52:41;12.60;;;6.72;;
41059;SDS011;26811;53.160;8.202;2023-03-13T09:57:48;10.02;;;6.50;;
41059;SDS011;26811;53.160;8.202;2023-03-13T10:08:31;17.88;;;6.32;;
41059;SDS011;26811;53.160;8.202;2023-03-13T10:13:36;11.52;;;5.55;;
41059;SDS011;26811;53.160;8.202;2023-03-13T10:18:52;14.57;;;4.97;;
41059;SDS011;26811;53.160;8.202;2023-03-13T10:23:57;14.68;;;5.05;;
41059;SDS011;26811;53.160;8.202;2023-03-13T10:34:19;9.20;;;3.92;;
41059;SDS011;26811;53.160;8.202;2023-03-13T10:39:20;8.75;;;3.50;;
41059;SDS011;26811;53.160;8.202;2023-03-13T10:44:23;6.50;;;3.00;;
41059;SDS011;26811;53.160;8.202;2023-03-13T10:49:31;8.90;;;3.33;;
41059;SDS011;26811;53.160;8.202;2023-03-13T10:54:33;7.57;;;3.10;;
41059;SDS011;26811;53.160;8.202;2023-03-13T10:59:40;7.18;;;3.28;;
41059;SDS011;26811;53.160;8.202;2023-03-13T11:04:44;7.32;;;2.97;;
41059;SDS011;26811;53.160;8.202;2023-03-13T11:09:56;10.02;;;3.25;;
41059;SDS011;26811;53.160;8.202;2023-03-13T11:15:05;9.07;;;2.85;;
41059;SDS011;26811;53.160;8.202;2023-03-13T11:30:55;9.68;;;3.35;;
41059;SDS011;26811;53.160;8.202;2023-03-13T11:36:08;13.68;;;3.67;;
41059;SDS011;26811;53.160;8.202;2023-03-13T11:57:17;11.55;;;3.47;;
41059;SDS011;26811;53.160;8.202;2023-03-13T12:02:32;9.57;;;2.83;;
41059;SDS011;26811;53.160;8.202;2023-03-13T12:07:41;10.20;;;2.60;;
41059;SDS011;26811;53.160;8.202;2023-03-13T12:40:10;8.70;;;2.25;;
41059;SDS011;26811;53.160;8.202;2023-03-13T12:45:15;6.25;;;1.90;;
41059;SDS011;26811;53.160;8.202;2023-03-13T12:50:27;5.35;;;2.03;;
41059;SDS011;26811;53.160;8.202;2023-03-13T13:01:11;6.15;;;2.25;;
41059;SDS011;26811;53.160;8.202;2023-03-13T13:06:20;3.65;;;2.00;;
41059;SDS011;26811;53.160;8.202;2023-03-13T13:16:45;10.63;;;2.07;;
41059;SDS011;26811;53.160;8.202;2023-03-13T13:32:45;7.00;;;2.10;;
41059;SDS011;26811;53.160;8.202;2023-03-13T13:38:32;7.63;;;2.28;;
41059;SDS011;26811;53.160;8.202;2023-03-13T13:43:40;5.05;;;2.00;;
41059;SDS011;26811;53.160;8.202;2023-03-13T13:48:42;7.10;;;2.13;;
41059;SDS011;26811;53.160;8.202;2023-03-13T13:53:44;5.63;;;2.00;;
41059;SDS011;26811;53.160;8.202;2023-03-13T13:58:46;5.55;;;2.10;;
41059;SDS011;26811;53.160;8.202;2023-03-13T14:03:47;4.05;;;1.80;;
41059;SDS011;26811;53.160;8.202;2023-03-13T14:08:54;4.78;;;2.38;;
41059;SDS011;26811;53.160;8.202;2023-03-13T14:24:33;6.35;;;2.40;;
41059;SDS011;26811;53.160;8.202;2023-03-13T14:29:34;4.80;;;2.25;;
41059;SDS011;26811;53.160;8.202;2023-03-13T14:34:35;7.78;;;2.10;;
41059;SDS011;26811;53.160;8.202;2023-03-13T14:39:36;4.57;;;2.20;;
41059;SDS011;26811;53.160;8.202;2023-03-13T14:44:44;4.97;;;2.05;;
41059;SDS011;26811;53.160;8.202;2023-03-13T14:49:48;6.82;;;2.10;;
41059;SDS011;26811;53.160;8.202;2023-03-13T14:55:02;9.15;;;2.15;;
41059;SDS011;26811;53.160;8.202;2023-03-13T15:00:28;7.40;;;1.70;;
41059;SDS011;26811;53.160;8.202;2023-03-13T15:05:32;9.88;;;1.67;;
41059;SDS011;26811;53.160;8.202;2023-03-13T15:10:34;5.05;;;1.63;;
41059;SDS011;26811;53.160;8.202;2023-03-13T15:20:36;6.00;;;1.58;;
41059;SDS011;26811;53.160;8.202;2023-03-13T15:25:36;7.80;;;1.90;;
41059;SDS011;26811;53.160;8.202;2023-03-13T15:30:39;6.88;;;1.70;;
41059;SDS011;26811;53.160;8.202;2023-03-13T15:35:40;9.20;;;1.52;;
41059;SDS011;26811;53.160;8.202;2023-03-13T15:40:41;6.63;;;1.67;;
41059;SDS011;26811;53.160;8.202;2023-03-13T15:45:43;5.05;;;1.55;;
41059;SDS011;26811;53.160;8.202;2023-03-13T15:50:50;8.55;;;1.70;;
41059;SDS011;26811;53.160;8.202;2023-03-13T15:55:56;7.80;;;1.60;;
41059;SDS011;26811;53.160;8.202;2023-03-13T16:00:59;6.82;;;1.40;;
41059;SDS011;26811;53.160;8.202;2023-03-13T16:05:59;5.45;;;1.83;;
41059;SDS011;26811;53.160;8.202;2023-03-13T16:11:00;9.07;;;2.28;;
41059;SDS011;26811;53.160;8.202;2023-03-13T16:16:00;4.78;;;1.65;;
41059;SDS011;26811;53.160;8.202;2023-03-13T16:21:01;3.47;;;1.60;;
41059;SDS011;26811;53.160;8.202;2023-03-13T16:26:02;5.70;;;2.47;;
41059;SDS011;26811;53.160;8.202;2023-03-13T16:31:04;5.83;;;1.43;;
41059;SDS011;26811;53.160;8.202;2023-03-13T16:36:10;6.50;;;1.75;;
41059;SDS011;26811;53.160;8.202;2023-03-13T16:41:18;7.90;;;2.13;;
41059;SDS011;26811;53.160;8.202;2023-03-13T16:46:25;12.48;;;2.03;;
41059;SDS011;26811;53.160;8.202;2023-03-13T16:51:31;9.95;;;2.00;;
41059;SDS011;26811;53.160;8.202;2023-03-13T16:56:39;9.70;;;2.50;;
41059;SDS011;26811;53.160;8.202;2023-03-13T17:01:42;7.47;;;2.17;;
41059;SDS011;26811;53.160;8.202;2023-03-13T17:06:43;11.90;;;2.50;;
41059;SDS011;26811;53.160;8.202;2023-03-13T17:11:45;14.43;;;2.92;;
41059;SDS011;26811;53.160;8.202;2023-03-13T17:16:45;18.38;;;2.70;;
41059;SDS011;26811;53.160;8.202;2023-03-13T17:21:49;16.65;;;2.65;;
41059;SDS011;26811;53.160;8.202;2023-03-13T17:26:50;11.48;;;2.42;;
41059;SDS011;26811;53.160;8.202;2023-03-13T17:31:50;11.32;;;2.55;;
41059;SDS011;26811;53.160;8.202;2023-03-13T17:36:57;12.90;;;2.70;;
41059;SDS011;26811;53.160;8.202;2023-03-13T17:42:25;14.07;;;2.80;;
41059;SDS011;26811;53.160;8.202;2023-03-13T17:47:37;10.60;;;2.67;;
41059;SDS011;26811;53.160;8.202;2023-03-13T17:52:51;14.13;;;3.05;;
41059;SDS011;26811;53.160;8.202;2023-03-13T17:58:32;19.60;;;3.30;;
41059;SDS011;26811;53.160;8.202;2023-03-13T18:03:44;24.38;;;3.80;;
41059;SDS011;26811;53.160;8.202;2023-03-13T18:08:45;19.10;;;3.25;;
41059;SDS011;26811;53.160;8.202;2023-03-13T18:13:47;15.63;;;3.38;;
41059;SDS011;26811;53.160;8.202;2023-03-13T18:18:49;20.15;;;4.75;;
41059;SDS011;26811;53.160;8.202;2023-03-13T18:23:50;19.70;;;4.18;;
41059;SDS011;26811;53.160;8.202;2023-03-13T18:28:52;16.27;;;3.60;;
41059;SDS011;26811;53.160;8.202;2023-03-13T18:33:58;24.75;;;4.53;;
41059;SDS011;26811;53.160;8.202;2023-03-13T18:38:59;17.67;;;3.53;;
41059;SDS011;26811;53.160;8.202;2023-03-13T18:43:59;32.63;;;4.75;;
41059;SDS011;26811;53.160;8.202;2023-03-13T18:49:00;23.25;;;4.13;;
41059;SDS011;26811;53.160;8.202;2023-03-13T18:54:01;22.63;;;4.05;;
41059;SDS011;26811;53.160;8.202;2023-03-13T18:59:01;21.80;;;5.45;;
41059;SDS011;26811;53.160;8.202;2023-03-13T19:04:02;22.55;;;4.15;;
41059;SDS011;26811;53.160;8.202;2023-03-13T19:09:05;25.35;;;3.90;;
41059;SDS011;26811;53.160;8.202;2023-03-13T19:14:16;21.65;;;4.60;;
41059;SDS011;26811;53.160;8.202;2023-03-13T19:19:18;26.60;;;5.43;;
41059;SDS011;26811;53.160;8.202;2023-03-13T19:24:22;30.70;;;9.35;;
41059;SDS011;26811;53.160;8.202;2023-03-13T19:29:26;26.08;;;5.97;;
41059;SDS011;26811;53.160;8.202;2023-03-13T19:34:27;27.15;;;5.97;;
41059;SDS011;26811;53.160;8.202;2023-03-13T19:39:27;18.25;;;4.13;;
41059;SDS011;26811;53.160;8.202;2023-03-13T19:44:28;26.65;;;5.10;;
41059;SDS011;26811;53.160;8.202;2023-03-13T19:49:29;21.83;;;4.60;;
41059;SDS011;26811;53.160;8.202;2023-03-13T19:54:30;33.03;;;6.15;;
41059;SDS011;26811;53.160;8.202;2023-03-13T19:59:33;31.55;;;9.13;;
41059;SDS011;26811;53.160;8.202;2023-03-13T20:04:37;23.48;;;6.80;;
41059;SDS011;26811;53.160;8.202;2023-03-13T20:09:38;23.05;;;7.65;;
41059;SDS011;26811;53.160;8.202;2023-03-13T20:14:39;24.85;;;6.00;;
41059;SDS011;26811;53.160;8.202;2023-03-13T20:19:39;26.55;;;7.38;;
41059;SDS011;26811;53.160;8.202;2023-03-13T20:24:40;41.60;;;12.70;;
41059;SDS011;26811;53.160;8.202;2023-03-13T20:29:40;37.30;;;11.52;;
41059;SDS011;26811;53.160;8.202;2023-03-13T20:34:41;33.67;;;4.82;;
41059;SDS011;26811;53.160;8.202;2023-03-13T20:39:42;22.50;;;4.60;;
41059;SDS011;26811;53.160;8.202;2023-03-13T20:44:42;25.48;;;4.93;;
41059;SDS011;26811;53.160;8.202;2023-03-13T20:49:44;20.92;;;4.07;;
41059;SDS011;26811;53.160;8.202;2023-03-13T20:54:45;20.08;;;4.30;;
41059;SDS011;26811;53.160;8.202;2023-03-13T20:59:45;23.63;;;4.15;;
41059;SDS011;26811;53.160;8.202;2023-03-13T21:04:46;20.95;;;4.53;;
41059;SDS011;26811;53.160;8.202;2023-03-13T21:09:46;25.70;;;4.57;;
41059;SDS011;26811;53.160;8.202;2023-03-13T21:14:47;27.98;;;4.82;;
41059;SDS011;26811;53.160;8.202;2023-03-13T21:19:52;20.73;;;4.30;;
41059;SDS011;26811;53.160;8.202;2023-03-13T21:24:53;25.80;;;5.85;;
41059;SDS011;26811;53.160;8.202;2023-03-13T21:29:54;33.00;;;7.45;;
41059;SDS011;26811;53.160;8.202;2023-03-13T21:34:54;36.65;;;10.18;;
41059;SDS011;26811;53.160;8.202;2023-03-13T21:39:55;36.65;;;9.82;;
41059;SDS011;26811;53.160;8.202;2023-03-13T21:44:55;25.45;;;5.30;;
41059;SDS011;26811;53.160;8.202;2023-03-13T21:49:57;39.92;;;8.43;;
41059;SDS011;26811;53.160;8.202;2023-03-13T22:00:00;49.22;;;12.82;;
41059;SDS011;26811;53.160;8.202;2023-03-13T22:05:01;28.60;;;5.90;;
41059;SDS011;26811;53.160;8.202;2023-03-13T22:10:02;44.72;;;9.25;;
41059;SDS011;26811;53.160;8.202;2023-03-13T22:15:04;23.08;;;5.07;;
41059;SDS011;26811;53.160;8.202;2023-03-13T22:20:05;26.90;;;5.95;;
41059;SDS011;26811;53.160;8.202;2023-03-13T22:25:07;38.65;;;11.55;;
41059;SDS011;26811;53.160;8.202;2023-03-13T22:30:10;27.33;;;8.27;;
41059;SDS011;26811;53.160;8.202;2023-03-13T22:35:11;51.95;;;11.93;;
41059;SDS011;26811;53.160;8.202;2023-03-13T22:40:12;33.42;;;6.25;;
41059;SDS011;26811;53.160;8.202;2023-03-13T22:45:12;31.83;;;5.47;;
41059;SDS011;26811;53.160;8.202;2023-03-13T22:50:13;43.35;;;6.38;;
41059;SDS011;26811;53.160;8.202;2023-03-13T22:55:14;27.48;;;4.72;;
41059;SDS011;26811;53.160;8.202;2023-03-13T23:00:15;29.10;;;4.05;;
41059;SDS011;26811;53.160;8.202;2023-03-13T23:05:16;20.85;;;4.00;;
41059;SDS011;26811;53.160;8.202;2023-03-13T23:10:17;29.88;;;4.55;;
41059;SDS011;26811;53.160;8.202;2023-03-13T23:15:22;25.98;;;4.20;;
41059;SDS011;26811;53.160;8.202;2023-03-13T23:25:23;25.92;;;4.57;;
41059;SDS011;26811;53.160;8.202;2023-03-13T23:30:24;29.60;;;4.40;;
41059;SDS011;26811;53.160;8.202;2023-03-13T23:35:25;32.40;;;4.35;;
41059;SDS011;26811;53.160;8.202;2023-03-13T23:40:25;20.13;;;3.58;;
41059;SDS011;26811;53.160;8.202;2023-03-13T23:50:34;24.65;;;4.32;;
41059;SDS011;26811;53.160;8.202;2023-03-13T23:55:35;30.45;;;4.07;;
